Time;durP1;ratioP1;P1;durP2;ratioP2;P2;SDS_P1;SDS_P2;PMS_P1;PMS_P2;Temp;Humidity;BMP_temperature;BMP_pressure;BME280_temperature;BME280_humidity;BME280_pressure;Samples;Min_cycle;Max_cycle;Signal;HPM_P1;HPM_P2
2022/08/21 00:00:13;;;;;;;6.00;5.50;;;;;;;18.75;100.00;99285.27;1806794;79;20974;-62
2022/08/21 00:02:55;;;;;;;6.78;6.17;;;;;;;18.75;100.00;99277.34;1797329;79;20879;-62
2022/08/21 00:05:23;;;;;;;5.97;5.47;;;;;;;18.77;100.00;99263.50;1791854;78;21049;-62
2022/08/21 00:07:51;;;;;;;7.00;6.30;;;;;;;18.75;100.00;99264.12;1792659;79;20850;-62
2022/08/21 00:10:19;;;;;;;7.03;6.15;;;;;;;18.77;100.00;99273.59;1792122;79;20887;-62
2022/08/21 00:12:46;;;;;;;6.67;6.12;;;;;;;18.80;100.00;99264.55;1794868;79;20962;-62
2022/08/21 00:15:18;;;;;;;6.58;5.90;;;;;;;18.83;100.00;99266.09;1795299;79;20883;-61
2022/08/21 00:17:45;;;;;;;7.95;7.00;;;;;;;18.79;100.00;99264.19;1741043;81;21046;-61
2022/08/21 00:20:15;;;;;;;6.70;6.12;;;;;;;18.83;100.00;99252.38;1768937;81;20891;-62
2022/08/21 00:22:42;;;;;;;7.25;6.53;;;;;;;18.86;100.00;99251.27;1766163;81;20950;-61
2022/08/21 00:25:10;;;;;;;7.87;7.17;;;;;;;18.84;100.00;99243.45;1765395;81;21722;-61
2022/08/21 00:27:38;;;;;;;7.72;6.92;;;;;;;18.86;100.00;99240.20;1747730;79;20965;-62
2022/08/21 00:30:07;;;;;;;7.15;6.55;;;;;;;18.88;100.00;99239.58;1761241;81;21052;-61
2022/08/21 00:32:36;;;;;;;6.97;6.37;;;;;;;18.93;100.00;99243.98;1749345;81;20939;-61
2022/08/21 00:35:07;;;;;;;9.25;6.62;;;;;;;18.92;100.00;99250.22;1748152;81;21081;-63
2022/08/21 00:37:34;;;;;;;8.10;6.78;;;;;;;18.96;100.00;99253.42;1813451;78;21012;-63
2022/08/21 00:40:01;;;;;;;7.62;6.95;;;;;;;18.96;100.00;99251.64;1794342;78;20941;-63
2022/08/21 00:42:30;;;;;;;8.00;7.22;;;;;;;18.93;100.00;99256.34;1779599;78;21249;-63
2022/08/21 00:44:56;;;;;;;7.95;7.15;;;;;;;18.97;100.00;99263.88;1775651;80;20934;-63
2022/08/21 00:47:23;;;;;;;8.18;7.33;;;;;;;19.03;100.00;99270.92;1772513;80;21390;-63
2022/08/21 00:49:50;;;;;;;10.05;8.10;;;;;;;19.07;100.00;99270.98;1775128;79;20970;-63
2022/08/21 00:52:22;;;;;;;8.05;7.30;;;;;;;19.04;100.00;99260.68;1799842;78;20930;-63
2022/08/21 00:54:50;;;;;;;8.23;7.53;;;;;;;19.05;100.00;99268.98;1802045;78;21898;-63
2022/08/21 00:57:27;;;;;;;7.83;7.03;;;;;;;19.09;100.00;99264.59;1816963;78;20910;-63
2022/08/21 00:59:58;;;;;;;8.93;7.90;;;;;;;19.09;100.00;99266.40;1783400;80;20875;-63
2022/08/21 01:02:25;;;;;;;8.40;7.53;;;;;;;19.08;100.00;99266.06;1790320;78;20955;-63
2022/08/21 01:04:52;;;;;;;8.48;7.72;;;;;;;19.04;100.00;99265.97;1810554;78;20955;-63
2022/08/21 01:07:19;;;;;;;9.53;7.65;;;;;;;19.06;100.00;99271.97;1797085;78;21038;-63
2022/08/21 01:09:47;;;;;;;;;;;;;;;19.05;100.00;99263.70;1804787;78;20974;-63
2022/08/21 01:12:14;;;;;;;7.90;7.10;;;;;;;19.01;100.00;99259.97;1780602;79;20138;-63
2022/08/21 01:14:42;;;;;;;9.15;8.33;;;;;;;19.01;100.00;99256.00;1786919;80;21462;-63
2022/08/21 01:17:12;;;;;;;8.63;7.03;;;;;;;19.03;100.00;99256.38;1783755;80;21512;-63
2022/08/21 01:19:38;;;;;;;8.98;8.08;;;;;;;19.00;100.00;99257.48;1796750;79;21856;-62
2022/08/21 01:22:06;;;;;;;8.90;8.00;;;;;;;18.98;100.00;99250.99;1808684;78;24764;-63
2022/08/21 01:24:33;;;;;;;8.33;7.53;;;;;;;18.97;100.00;99253.30;1808842;78;20883;-63
2022/08/21 01:27:01;;;;;;;7.97;7.15;;;;;;;18.97;100.00;99250.66;1780067;79;20926;-62
2022/08/21 01:29:42;;;;;;;13.25;7.83;;;;;;;18.97;100.00;99250.66;1791957;79;21586;-63
2022/08/21 01:32:13;;;;;;;8.35;7.65;;;;;;;18.99;100.00;99254.01;1801788;79;21814;-62
2022/08/21 01:34:44;;;;;;;9.05;8.25;;;;;;;19.01;100.00;99256.50;1792367;79;21467;-63
2022/08/21 01:37:12;;;;;;;8.58;7.58;;;;;;;19.01;100.00;99249.39;1779530;80;21463;-63
2022/08/21 01:39:40;;;;;;;8.70;7.90;;;;;;;19.03;100.00;99256.38;1785656;80;21037;-63
2022/08/21 01:42:07;;;;;;;10.60;7.55;;;;;;;19.03;100.00;99255.05;1790508;80;20913;-62
2022/08/21 01:44:34;;;;;;;;;;;;;;;18.99;100.00;99251.36;1783188;80;21042;-62
2022/08/21 01:47:05;;;;;;;7.42;6.53;;;;;;;18.96;100.00;99251.64;1791382;78;20085;-63
2022/08/21 01:49:32;;;;;;;7.53;6.72;;;;;;;18.92;100.00;99244.10;1791301;79;21377;-62
2022/08/21 01:51:59;;;;;;;9.93;6.75;;;;;;;18.91;100.00;99248.56;1791909;79;20971;-62
2022/08/21 01:54:26;;;;;;;7.90;6.47;;;;;;;18.90;100.00;99250.84;1757378;80;20953;-62
2022/08/21 01:56:54;;;;;;;9.95;6.40;;;;;;;18.86;100.00;99249.45;1777304;79;21788;-63
2022/08/21 01:59:23;;;;;;;7.42;6.20;;;;;;;18.89;100.00;99250.50;1774320;79;20906;-62
2022/08/21 02:01:50;;;;;;;11.78;7.15;;;;;;;18.93;100.00;99254.56;1780890;79;20913;-63
2022/08/21 02:04:17;;;;;;;7.70;6.95;;;;;;;18.92;100.00;99254.19;1773418;79;20979;-62
2022/08/21 02:06:44;;;;;;;7.50;6.80;;;;;;;18.95;100.00;99255.23;1772811;79;20977;-63
2022/08/21 02:09:12;;;;;;;8.00;6.87;;;;;;;18.94;100.00;99253.58;1780633;79;20899;-63
2022/08/21 02:11:41;;;;;;;6.90;6.30;;;;;;;18.92;100.00;99252.88;1791499;79;20891;-62
2022/08/21 02:14:11;;;;;;;7.72;6.92;;;;;;;18.97;100.00;99250.66;1776635;79;20923;-63
2022/08/21 02:16:39;;;;;;;8.55;6.45;;;;;;;19.04;100.00;99247.45;1768921;79;20973;-62
2022/08/21 02:19:06;;;;;;;8.05;6.90;;;;;;;19.01;100.00;99250.71;1768690;79;20947;-63
2022/08/21 02:21:33;;;;;;;8.80;6.80;;;;;;;18.99;100.00;99246.06;1776420;79;21569;-62
2022/08/21 02:24:00;;;;;;;12.40;7.15;;;;;;;18.96;100.00;99243.70;1779139;79;20962;-63
2022/08/21 02:26:27;;;;;;;7.83;7.03;;;;;;;18.94;100.00;99239.02;1780328;79;20875;-62
2022/08/21 02:28:53;;;;;;;7.92;7.10;;;;;;;18.96;100.00;99235.77;1773995;79;20930;-62
2022/08/21 02:31:20;;;;;;;9.30;7.12;;;;;;;18.94;100.00;99240.34;1772914;79;20907;-63
2022/08/21 02:33:47;;;;;;;8.75;7.30;;;;;;;18.85;100.00;99241.19;1767125;79;21790;-63
2022/08/21 02:36:14;;;;;;;7.47;6.83;;;;;;;18.89;100.00;99231.16;1747736;80;21005;-63
2022/08/21 02:38:42;;;;;;;7.33;6.35;;;;;;;18.77;100.00;99233.09;1784239;80;21064;-63
2022/08/21 02:41:14;;;;;;;11.03;7.58;;;;;;;18.85;100.00;99227.95;1770946;79;20902;-62
2022/08/21 02:43:41;;;;;;;9.33;7.40;;;;;;;18.85;100.00;99221.80;1767641;79;20918;-63
2022/08/21 02:46:10;;;;;;;9.25;7.83;;;;;;;18.79;100.00;99227.16;1792609;80;21151;-63
2022/08/21 02:48:37;;;;;;;8.90;8.00;;;;;;;18.87;100.00;99218.05;1776579;80;20914;-62
2022/08/21 02:51:12;;;;;;;8.63;7.55;;;;;;;18.95;100.00;99215.55;1779980;80;20898;-63
2022/08/21 02:53:39;;;;;;;9.15;7.97;;;;;;;18.95;100.00;99218.20;1769558;79;21477;-62
2022/08/21 02:56:10;;;;;;;8.45;7.40;;;;;;;18.95;100.00;99212.08;1786916;79;20974;-63
2022/08/21 02:58:41;;;;;;;10.48;8.48;;;;;;;18.84;100.00;99217.00;1775961;80;21033;-62
2022/08/21 03:01:09;;;;;;;10.75;8.30;;;;;;;18.77;100.00;99214.09;1777349;80;20903;-63
2022/08/21 03:03:38;;;;;;;12.78;8.33;;;;;;;18.83;100.00;99213.20;1788544;80;20922;-63
2022/08/21 03:06:07;;;;;;;9.30;8.38;;;;;;;18.88;100.00;99216.27;1771540;80;20926;-62
2022/08/21 03:08:35;;;;;;;9.83;8.35;;;;;;;18.95;100.00;99218.20;1780917;79;20950;-63
2022/08/21 03:11:02;;;;;;;9.95;7.87;;;;;;;18.90;100.00;99220.42;1767900;80;21091;-63
2022/08/21 03:13:29;;;;;;;9.50;7.45;;;;;;;18.85;100.00;99222.66;1778441;79;20922;-63
2022/08/21 03:15:56;;;;;;;19.62;7.78;;;;;;;18.84;100.00;99218.33;1772820;80;20985;-63
2022/08/21 03:18:23;;;;;;;11.22;7.55;;;;;;;18.74;100.00;99214.86;1773801;80;20915;-63
2022/08/21 03:20:50;;;;;;;8.83;7.10;;;;;;;18.87;100.00;99224.66;1773910;79;21415;-63
2022/08/21 03:23:17;;;;;;;8.38;7.30;;;;;;;18.75;100.00;99222.64;1775396;80;22196;-63
2022/08/21 03:25:46;;;;;;;8.50;6.83;;;;;;;18.91;100.00;99226.08;1769233;80;21409;-63
2022/08/21 03:28:18;;;;;;;10.53;7.87;;;;;;;18.92;100.00;99226.41;1767506;79;20863;-63
2022/08/21 03:30:48;;;;;;;8.03;7.33;;;;;;;18.81;100.00;99226.54;1772361;79;21560;-63
2022/08/21 03:33:15;;;;;;;8.28;7.47;;;;;;;18.79;100.00;99229.80;1779847;80;20918;-63
2022/08/21 03:35:45;;;;;;;7.97;7.17;;;;;;;18.82;100.00;99228.23;1776194;79;21697;-63
2022/08/21 03:38:13;;;;;;;8.50;6.78;;;;;;;18.85;100.00;99229.28;1771601;80;21465;-63
2022/08/21 03:40:43;;;;;;;7.33;6.20;;;;;;;18.90;100.00;99230.17;1782143;79;20913;-63
2022/08/21 03:43:11;;;;;;;8.53;6.05;;;;;;;18.90;100.00;99228.35;1773548;80;20946;-62
2022/08/21 03:45:39;;;;;;;6.35;5.75;;;;;;;18.89;100.00;99221.41;1769837;80;20851;-63
2022/08/21 03:48:07;;;;;;;6.58;5.47;;;;;;;18.89;100.00;99229.34;1777251;80;21102;-63
2022/08/21 03:50:38;;;;;;;5.85;5.17;;;;;;;18.90;100.00;99225.70;1772325;79;20914;-63
2022/08/21 03:53:06;;;;;;;5.80;5.20;;;;;;;18.89;100.00;99231.98;1767103;80;20975;-63
2022/08/21 03:55:32;;;;;;;5.67;5.17;;;;;;;18.91;100.00;99231.37;1776110;79;21465;-63
2022/08/21 03:57:59;;;;;;;5.33;4.83;;;;;;;18.81;100.00;99231.83;1787161;79;20887;-63
2022/08/21 04:00:26;;;;;;;5.50;5.00;;;;;;;18.85;100.00;99235.89;1777490;80;21124;-63
2022/08/21 04:02:53;;;;;;;5.30;4.80;;;;;;;18.82;100.00;99243.24;1780303;80;20956;-63
2022/08/21 04:05:29;;;;;;;6.00;4.72;;;;;;;18.83;100.00;99237.83;1780990;80;20962;-63
2022/08/21 04:08:00;;;;;;;4.55;4.15;;;;;;;18.83;100.00;99248.41;1793235;80;20903;-63
2022/08/21 04:10:28;;;;;;;5.25;4.75;;;;;;;18.90;100.00;99250.01;1784223;80;20940;-63
2022/08/21 04:12:55;;;;;;;8.00;5.30;;;;;;;18.98;100.00;99249.67;1781942;80;21041;-63
2022/08/21 04:15:24;;;;;;;5.15;4.65;;;;;;;18.99;100.00;99251.36;1792489;80;20883;-63
2022/08/21 04:17:51;;;;;;;5.00;4.50;;;;;;;18.91;100.00;99253.85;1784829;80;20989;-63
2022/08/21 04:20:18;;;;;;;;;;;;;;;18.95;100.00;99252.59;1776220;79;21521;-63
2022/08/21 04:22:45;;;;;;;4.95;4.50;;;;;;;18.92;100.00;99257.33;1781396;80;20086;-63
2022/08/21 04:25:14;;;;;;;;;;;;;;;18.87;100.00;99244.50;1787543;80;21471;-63
2022/08/21 04:27:41;;;;;;;7.20;5.70;;;;;;;18.89;100.00;99247.02;1772094;80;20104;-63
2022/08/21 04:30:09;;;;;;;6.60;5.40;;;;;;;18.98;100.00;99248.34;1766634;79;20864;-64
2022/08/21 04:32:37;;;;;;;6.28;5.55;;;;;;;18.98;100.00;99249.67;1772035;80;20879;-64
2022/08/21 04:35:09;;;;;;;6.10;5.55;;;;;;;19.00;100.00;99243.77;1790026;80;21483;-63
2022/08/21 04:37:36;;;;;;;6.97;5.53;;;;;;;18.88;100.00;99247.52;1778712;79;20953;-64
2022/08/21 04:40:06;;;;;;;6.25;5.65;;;;;;;18.93;100.00;99251.91;1777724;79;20966;-64
2022/08/21 04:42:33;;;;;;;6.42;5.83;;;;;;;18.92;100.00;99242.28;1763008;80;20904;-63
2022/08/21 04:45:00;;;;;;;8.28;5.60;;;;;;;18.92;100.00;99244.10;1777757;79;20859;-64
2022/08/21 04:47:26;;;;;;;6.37;5.78;;;;;;;18.85;100.00;99251.77;1789093;80;20902;-64
2022/08/21 04:49:53;;;;;;;6.03;5.45;;;;;;;18.93;100.00;99251.05;1779985;79;21540;-63
2022/08/21 04:52:23;;;;;;;6.12;5.22;;;;;;;18.93;100.00;99247.95;1785466;79;20930;-63
2022/08/21 04:54:51;;;;;;;6.15;5.55;;;;;;;18.93;100.00;99251.05;1785339;80;20923;-63
2022/08/21 04:57:19;;;;;;;7.37;5.33;;;;;;;18.99;100.00;99249.20;1775997;79;20939;-64
2022/08/21 04:59:50;;;;;;;7.03;5.45;;;;;;;18.99;100.00;99254.01;1792707;79;20918;-64
2022/08/21 05:02:17;;;;;;;6.65;5.97;;;;;;;18.98;100.00;99254.95;1796206;79;21198;-63
2022/08/21 05:04:51;;;;;;;7.28;6.50;;;;;;;19.09;100.00;99261.94;1792567;79;20843;-64
2022/08/21 05:07:26;;;;;;;6.17;5.60;;;;;;;19.09;100.00;99264.59;1788638;79;21001;-64
2022/08/21 05:09:53;;;;;;;6.72;6.12;;;;;;;19.12;100.00;99257.69;1786624;79;21415;-64
2022/08/21 05:12:21;;;;;;;7.37;6.67;;;;;;;19.20;100.00;99257.01;1793319;79;21427;-64
2022/08/21 05:14:48;;;;;;;6.60;6.00;;;;;;;19.24;100.00;99265.03;1791111;79;21721;-64
2022/08/21 05:17:15;;;;;;;6.40;5.65;;;;;;;19.11;100.00;99262.64;1793705;79;20843;-64
2022/08/21 05:19:41;;;;;;;5.72;5.25;;;;;;;19.18;100.00;99269.04;1797937;79;20953;-64
2022/08/21 05:22:09;;;;;;;5.72;5.22;;;;;;;19.21;100.00;99267.92;1782727;79;21545;-63
2022/08/21 05:24:35;;;;;;;5.08;4.58;;;;;;;19.20;100.00;99268.91;1785364;79;26285;-64
2022/08/21 05:27:03;;;;;;;4.60;4.20;;;;;;;19.20;100.00;99267.59;1777081;79;21874;-63
2022/08/21 05:29:31;;;;;;;4.10;3.70;;;;;;;19.20;100.00;99279.50;1796958;78;20949;-62
2022/08/21 05:31:57;;;;;;;4.72;3.77;;;;;;;19.21;100.00;99278.52;1767233;80;20902;-62
2022/08/21 05:34:24;;;;;;;4.45;3.80;;;;;;;19.17;100.00;99279.78;1785145;80;20935;-62
2022/08/21 05:36:51;;;;;;;7.70;3.33;;;;;;;19.16;100.00;99278.13;1769078;80;20943;-62
2022/08/21 05:39:18;;;;;;;3.80;3.50;;;;;;;19.16;100.00;99278.95;1779316;79;21381;-62
2022/08/21 05:41:45;;;;;;;4.37;3.50;;;;;;;19.12;100.00;99282.00;1775681;79;20943;-62
2022/08/21 05:44:11;;;;;;;4.03;3.42;;;;;;;19.06;100.00;99290.49;1788308;79;20930;-62
2022/08/21 05:46:38;;;;;;;4.67;3.67;;;;;;;18.99;100.00;99287.08;1780901;79;20967;-62
2022/08/21 05:49:05;;;;;;;3.40;3.10;;;;;;;18.95;100.00;99286.98;1778790;79;20946;-62
2022/08/21 05:51:32;;;;;;;3.47;3.17;;;;;;;19.00;100.00;99287.41;1781139;79;21234;-62
2022/08/21 05:53:58;;;;;;;4.35;3.30;;;;;;;18.94;100.00;99277.39;1777031;79;21511;-62
2022/08/21 05:56:25;;;;;;;3.98;3.65;;;;;;;18.97;100.00;99284.22;1792008;79;20886;-62
2022/08/21 05:58:52;;;;;;;5.10;4.15;;;;;;;18.98;100.00;99287.20;1799257;79;20905;-62
2022/08/21 06:01:19;;;;;;;4.65;4.10;;;;;;;18.87;100.00;99297.90;1782410;79;20982;-62
2022/08/21 06:03:46;;;;;;;5.40;4.58;;;;;;;19.03;100.00;99301.35;1784429;79;21038;-62
2022/08/21 06:06:12;;;;;;;4.28;3.87;;;;;;;18.87;100.00;99304.52;1796653;79;20898;-62
2022/08/21 06:08:39;;;;;;;3.92;3.58;;;;;;;19.02;100.00;99297.88;1792649;79;20891;-62
2022/08/21 06:11:07;;;;;;;4.42;3.77;;;;;;;19.12;100.00;99303.17;1789234;79;20891;-62
2022/08/21 06:13:35;;;;;;;6.35;4.50;;;;;;;19.01;100.00;99297.02;1782921;79;20916;-62
2022/08/21 06:16:07;;;;;;;5.55;4.40;;;;;;;19.18;100.00;99292.02;1805364;78;21101;-62
2022/08/21 06:18:35;;;;;;;5.78;4.10;;;;;;;19.27;100.00;99291.22;1774977;79;20941;-62
2022/08/21 06:21:03;;;;;;;4.97;3.50;;;;;;;19.28;100.00;99292.87;1790959;78;21841;-62
2022/08/21 06:23:30;;;;;;;7.65;4.30;;;;;;;19.29;100.00;99295.87;1787153;79;20895;-62
2022/08/21 06:25:57;;;;;;;4.42;3.50;;;;;;;19.30;100.00;99290.11;1781227;80;20880;-63
2022/08/21 06:28:24;;;;;;;5.47;3.90;;;;;;;19.29;100.00;99285.28;1774524;79;21057;-63
2022/08/21 06:30:51;;;;;;;4.70;4.20;;;;;;;19.29;100.00;99279.98;1791823;79;20898;-63
2022/08/21 06:33:18;;;;;;;5.37;4.15;;;;;;;19.32;100.00;99279.70;1789969;79;21487;-62
2022/08/21 06:35:45;;;;;;;3.83;3.37;;;;;;;19.32;100.00;99281.03;1783191;79;20937;-64
2022/08/21 06:38:11;;;;;;;4.70;3.70;;;;;;;19.30;100.00;99279.03;1786754;79;21013;-63
2022/08/21 06:40:39;;;;;;;6.17;3.80;;;;;;;19.25;100.00;99274.63;1770872;79;21118;-63
2022/08/21 06:43:11;;;;;;;;;;;;;;;19.24;100.00;99278.27;1780063;79;20926;-62
2022/08/21 06:45:38;;;;;;;5.42;3.85;;;;;;;19.22;100.00;99280.20;1771872;79;20461;-63
2022/08/21 06:48:06;;;;;;;8.13;3.95;;;;;;;19.25;100.00;99277.28;1777572;79;20913;-64
2022/08/21 06:50:34;;;;;;;3.77;3.12;;;;;;;19.29;100.00;99280.48;1784792;79;20949;-63
2022/08/21 06:53:05;;;;;;;4.85;3.50;;;;;;;19.33;100.00;99277.42;1783716;79;21105;-64
2022/08/21 06:55:32;;;;;;;5.10;3.50;;;;;;;19.21;100.00;99276.73;1783119;79;20934;-65
2022/08/21 06:58:00;;;;;;;4.35;3.65;;;;;;;19.20;100.00;99278.17;1779389;79;20945;-63
2022/08/21 07:00:27;;;;;;;;;;;;;;;19.24;100.00;99282.23;1810236;78;21428;-64
2022/08/21 07:02:53;;;;;;;5.58;3.25;;;;;;;19.24;100.00;99278.27;1797057;78;20145;-63
2022/08/21 07:05:21;;;;;;;4.55;3.30;;;;;;;19.05;100.00;99280.89;1788689;79;21068;-63
2022/08/21 07:07:48;;;;;;;6.58;3.55;;;;;;;19.22;100.00;99283.69;1766460;80;20957;-63
2022/08/21 07:10:16;;;;;;;4.20;3.12;;;;;;;19.31;100.00;99288.62;1810119;78;20957;-63
2022/08/21 07:12:42;;;;;;;9.28;3.25;;;;;;;19.38;100.00;99295.05;1792409;79;20958;-63
2022/08/21 07:15:10;;;;;;;3.55;2.83;;;;;;;19.45;100.00;99288.21;1795603;78;21436;-64
2022/08/21 07:17:37;;;;;;;5.37;3.37;;;;;;;19.64;100.00;99295.81;1804011;78;22037;-63
2022/08/21 07:20:06;;;;;;;4.72;3.10;;;;;;;19.82;100.00;99287.50;1798340;79;20899;-63
2022/08/21 07:22:35;;;;;;;3.05;2.40;;;;;;;20.14;100.00;99298.27;1792610;78;20921;-63
2022/08/21 07:25:08;;;;;;;2.95;2.45;;;;;;;20.22;100.00;99297.05;1792117;78;21010;-63
2022/08/21 07:27:35;;;;;;;4.65;3.12;;;;;;;20.21;100.00;99298.02;1798595;78;21434;-64
2022/08/21 07:30:05;;;;;;;3.33;2.55;;;;;;;20.21;100.00;99298.02;1802603;78;21140;-63
2022/08/21 07:32:33;;;;;;;6.75;2.50;;;;;;;20.04;100.00;99297.44;1789994;78;20937;-63
2022/08/21 07:35:00;;;;;;;5.83;2.85;;;;;;;19.85;100.00;99307.09;1786176;78;21765;-64
2022/08/21 07:37:27;;;;;;;3.50;2.70;;;;;;;19.70;100.00;99308.52;1750921;80;21508;-63
2022/08/21 07:39:54;;;;;;;4.90;2.95;;;;;;;19.67;100.00;99316.75;1791970;80;21634;-63
2022/08/21 07:42:21;;;;;;;4.15;2.85;;;;;;;19.66;100.00;99308.44;1791022;79;21908;-63
2022/08/21 07:44:48;;;;;;;3.05;2.70;;;;;;;19.63;100.00;99312.66;1788288;79;20943;-63
2022/08/21 07:47:15;;;;;;;3.05;2.47;;;;;;;19.60;100.00;99312.94;1723873;80;20942;-63
2022/08/21 07:49:42;;;;;;;3.80;2.50;;;;;;;19.61;100.00;99314.14;1760108;79;20890;-63
2022/08/21 07:52:09;;;;;;;4.15;2.45;;;;;;;19.56;100.00;99316.36;1758642;80;21415;-62
2022/08/21 07:54:35;;;;;;;4.25;2.70;;;;;;;19.52;100.00;99318.09;1767743;79;22028;-62
2022/08/21 07:57:03;;;;;;;6.20;2.52;;;;;;;19.54;100.00;99316.16;1757671;79;20960;-63
2022/08/21 07:59:30;;;;;;;5.78;2.70;;;;;;;19.53;100.00;99314.49;1753749;79;21897;-62
2022/08/21 08:02:05;;;;;;;4.95;2.92;;;;;;;19.50;100.00;99308.98;1738059;81;20937;-62
2022/08/21 08:04:34;;;;;;;5.60;2.83;;;;;;;19.48;100.00;99300.83;1766329;80;20933;-62
2022/08/21 08:07:02;;;;;;;3.95;2.30;;;;;;;19.34;100.00;99303.41;1749648;80;20945;-63
2022/08/21 08:09:29;;;;;;;5.25;2.70;;;;;;;19.33;100.00;99297.28;1759805;79;20947;-62
2022/08/21 08:11:56;;;;;;;8.30;2.72;;;;;;;19.57;100.00;99309.25;1760558;79;20945;-63
2022/08/21 08:14:23;;;;;;;4.72;2.87;;;;;;;19.53;100.00;99315.81;1757630;80;21487;-62
2022/08/21 08:16:50;;;;;;;5.28;2.58;;;;;;;19.50;100.00;99320.06;1739590;80;20963;-62
2022/08/21 08:19:17;;;;;;;4.45;2.20;;;;;;;19.28;100.00;99315.37;1777668;80;21033;-62
2022/08/21 08:21:43;;;;;;;3.83;2.62;;;;;;;19.33;100.00;99329.05;1767978;80;20941;-63
2022/08/21 08:24:10;;;;;;;4.87;2.85;;;;;;;19.29;100.00;99323.66;1712973;80;119794;-63
2022/08/21 08:26:37;;;;;;;5.65;2.40;;;;;;;19.41;100.00;99319.92;1695338;82;20980;-62
2022/08/21 08:29:04;;;;;;;3.58;2.25;;;;;;;19.44;100.00;99322.78;1703669;83;20967;-62
2022/08/21 08:31:31;;;;;;;3.15;2.02;;;;;;;19.41;100.00;99322.57;1700734;82;21237;-62
2022/08/21 08:33:57;;;;;;;3.98;2.50;;;;;;;19.44;100.00;99324.94;1700510;84;21572;-62
2022/08/21 08:36:33;;;;;;;7.40;2.83;;;;;;;19.45;100.00;99316.01;1701806;84;20886;-63
2022/08/21 08:39:04;;;;;;;3.80;2.37;;;;;;;19.53;100.00;99318.47;1717913;82;20980;-62
2022/08/21 08:41:33;;;;;;;4.35;2.75;;;;;;;19.42;100.00;99310.17;1708288;82;20933;-63
2022/08/21 08:44:03;;;;;;;3.95;2.50;;;;;;;19.47;100.00;99311.91;1721995;81;21080;-63
2022/08/21 08:46:48;;;;;;;4.42;2.55;;;;;;;19.47;100.00;99307.11;1725545;82;20909;-62
2022/08/21 08:49:26;;;;;;;6.53;3.12;;;;;;;19.47;100.00;99305.79;1701766;81;20953;-62
2022/08/21 08:52:04;;;;;;;4.08;2.95;;;;;;;19.47;100.00;99305.79;1719421;81;21007;-62
2022/08/21 08:54:37;;;;;;;4.40;2.80;;;;;;;19.25;100.00;99301.09;1693550;83;20977;-63
2022/08/21 08:57:10;;;;;;;4.50;2.72;;;;;;;19.24;100.00;99303.41;1687232;84;21006;-62
2022/08/21 08:59:42;;;;;;;3.80;2.20;;;;;;;19.41;100.00;99304.04;1728053;81;20894;-62
2022/08/21 09:02:12;;;;;;;4.00;2.83;;;;;;;19.37;100.00;99305.77;1701206;82;20925;-62
2022/08/21 09:04:39;;;;;;;3.45;2.52;;;;;;;19.42;100.00;99303.05;1698102;84;21651;-62
2022/08/21 09:07:30;;;;;;;3.85;2.60;;;;;;;19.54;100.00;99309.53;1701926;84;20898;-62
2022/08/21 09:10:14;;;;;;;3.83;2.58;;;;;;;19.58;100.00;99312.27;1701235;83;21842;-62
2022/08/21 09:13:14;;;;;;;3.67;2.52;;;;;;;19.58;100.00;99310.94;1677875;84;20973;-61
2022/08/21 09:16:16;;;;;;;3.33;2.65;;;;;;;19.67;100.00;99308.80;1712812;82;20926;-62
2022/08/21 09:19:03;;;;;;;4.78;3.27;;;;;;;19.78;100.00;99307.33;1699190;84;21071;-61
2022/08/21 09:21:42;;;;;;;4.37;3.00;;;;;;;19.80;100.00;99304.05;1696488;83;20894;-62
2022/08/21 09:24:35;;;;;;;4.60;3.25;;;;;;;19.82;100.00;99307.37;1699902;83;28509;-61
2022/08/21 09:27:13;;;;;;;6.25;3.27;;;;;;;19.78;100.00;99310.47;1713666;83;21626;-61
2022/08/21 09:29:50;;;;;;;3.17;2.65;;;;;;;19.86;100.00;99308.78;1715307;83;20895;-61
2022/08/21 09:32:30;;;;;;;7.20;3.33;;;;;;;19.99;100.00;99315.58;1693558;83;20907;-61
2022/08/21 09:35:21;;;;;;;3.95;2.58;;;;;;;19.93;100.00;99320.13;1699786;83;20988;-61
2022/08/21 09:38:05;;;;;;;5.85;2.70;;;;;;;19.82;100.00;99316.64;1703765;83;21068;-61
2022/08/21 09:40:46;;;;;;;6.17;2.98;;;;;;;19.79;100.00;99326.20;1704157;83;20977;-61
2022/08/21 09:43:18;;;;;;;7.97;2.95;;;;;;;19.76;100.00;99323.84;1729161;81;20955;-61
2022/08/21 09:45:46;;;;;;;4.05;2.75;;;;;;;19.87;100.00;99323.69;1726899;81;21010;-61
2022/08/21 09:48:20;;;;;;;4.62;2.45;;;;;;;19.96;100.00;99322.49;1729945;81;21032;-61
2022/08/21 09:50:49;;;;;;;3.72;2.92;;;;;;;20.04;100.00;99316.83;1728103;81;21491;-61
2022/08/21 09:53:24;;;;;;;4.10;2.10;;;;;;;20.01;100.00;99316.28;1727453;81;20966;-61
2022/08/21 09:58:50;;;;;;;5.17;2.50;;;;;;;19.93;100.00;99316.16;1717419;81;20927;-61
2022/08/21 10:01:26;;;;;;;4.80;2.52;;;;;;;19.95;100.00;99314.20;1711874;81;21159;-61
2022/08/21 10:04:10;;;;;;;7.58;2.27;;;;;;;19.90;100.00;99330.52;1702611;83;20992;-61
2022/08/21 10:06:37;;;;;;;2.90;1.85;;;;;;;19.83;100.00;99332.91;1703100;82;20987;-62
2022/08/21 10:09:12;;;;;;;;;;;;;;;19.65;100.00;99331.91;1713778;82;21905;-62
2022/08/21 10:11:44;;;;;;;3.58;2.40;;;;;;;19.56;100.00;99345.49;1707076;82;20177;-61
2022/08/21 10:14:45;;;;;;;6.72;2.77;;;;;;;19.45;100.00;99345.13;1708569;82;21001;-61
2022/08/21 10:17:36;;;;;;;5.45;2.25;;;;;;;19.40;100.00;99348.67;1699547;82;21507;-61
2022/08/21 10:20:19;;;;;;;4.30;2.17;;;;;;;19.40;100.00;99346.03;1727427;82;21117;-61
2022/08/21 10:23:18;;;;;;;7.53;2.40;;;;;;;19.32;100.00;99352.50;1723895;82;20916;-62
2022/08/21 10:25:52;;;;;;;4.30;2.15;;;;;;;19.27;100.00;99352.09;1733648;81;21030;-61
2022/08/21 10:28:33;;;;;;;6.08;2.65;;;;;;;19.21;100.00;99349.97;1723440;82;21010;-62
2022/08/21 10:31:31;;;;;;;5.37;2.50;;;;;;;19.12;100.00;99353.45;1638339;86;21231;-61
2022/08/21 10:34:09;;;;;;;5.03;2.50;;;;;;;18.85;100.00;99346.98;1536871;92;20992;-62
2022/08/21 10:36:43;;;;;;;3.90;2.65;;;;;;;18.87;100.00;99358.24;1526121;92;20976;-61
2022/08/21 10:39:38;;;;;;;4.85;2.70;;;;;;;18.81;100.00;99356.14;1570073;90;21954;-61
2022/08/21 10:42:42;;;;;;;4.60;2.60;;;;;;;18.83;100.00;99359.50;1549635;91;21045;-61
2022/08/21 10:45:38;;;;;;;5.30;2.27;;;;;;;18.82;100.00;99348.58;1522088;92;21279;-61
2022/08/21 10:48:08;;;;;;;4.22;2.20;;;;;;;18.83;100.00;99350.73;1528110;92;20978;-61
2022/08/21 10:50:55;;;;;;;5.20;2.52;;;;;;;19.05;100.00;99352.33;1521310;92;21766;-61
2022/08/21 10:53:27;;;;;;;3.60;2.02;;;;;;;19.14;100.00;99352.83;1504322;92;20980;-61
2022/08/21 10:56:07;;;;;;;3.35;1.50;;;;;;;19.08;100.00;99344.13;1516792;92;21203;-61
2022/08/21 10:58:51;;;;;;;2.37;1.40;;;;;;;18.77;100.00;99346.81;1499345;94;21097;-61
2022/08/21 11:01:47;;;;;;;1.47;1.17;;;;;;;18.55;99.27;99339.88;1500522;94;21046;-61
2022/08/21 11:04:36;;;;;;;2.55;1.15;;;;;;;18.43;100.00;99349.70;1495206;94;21633;-61
2022/08/21 11:07:14;;;;;;;3.10;2.00;;;;;;;18.26;99.29;99347.64;1529080;90;20997;-61
2022/08/21 11:09:45;;;;;;;5.25;1.72;;;;;;;18.15;100.00;99341.11;1576876;89;20979;-61
2022/08/21 11:12:40;;;;;;;2.67;1.92;;;;;;;18.19;100.00;99347.33;1600999;87;21160;-61
2022/08/21 11:15:47;;;;;;;3.17;1.50;;;;;;;18.29;100.00;99355.34;1621471;86;20942;-62
2022/08/21 11:18:36;;;;;;;4.25;1.85;;;;;;;18.55;100.00;99360.53;1627193;87;20938;-62
2022/08/21 11:21:25;;;;;;;3.62;1.85;;;;;;;18.68;100.00;99363.42;1650723;83;20961;-62
2022/08/21 11:24:38;;;;;;;5.65;1.65;;;;;;;18.59;100.00;99381.42;1714007;82;21564;-61
2022/08/21 11:27:28;;;;;;;3.22;1.55;;;;;;;18.47;100.00;99392.08;1694515;83;21096;-62
2022/08/21 11:29:58;;;;;;;5.05;1.27;;;;;;;18.47;100.00;99392.08;1698672;84;20972;-62
2022/08/21 11:32:57;;;;;;;3.15;1.10;;;;;;;18.26;99.69;99392.11;1703931;82;21009;-62
2022/08/21 11:35:48;;;;;;;2.58;1.20;;;;;;;18.19;99.68;99383.50;1707601;82;21556;-62
2022/08/21 11:38:40;;;;;;;3.50;1.40;;;;;;;18.11;99.80;99394.70;1704287;83;20969;-61
2022/08/21 11:41:27;;;;;;;6.60;1.70;;;;;;;18.12;100.00;99396.40;1683748;84;21532;-61
2022/08/21 11:44:35;;;;;;;7.42;1.72;;;;;;;18.17;100.00;99398.63;1687518;84;21670;-61
2022/08/21 11:47:13;;;;;;;4.67;1.90;;;;;;;18.19;100.00;99391.42;1669928;83;20925;-61
2022/08/21 11:50:18;;;;;;;2.15;1.25;;;;;;;18.36;100.00;99378.94;1679252;83;20894;-61